sensor_id;sensor_type;location;lat;lon;timestamp;P1;durP1;ratioP1;P2;durP2;ratioP2
29382;SDS011;16365;51.598;7.668;2023-03-04T00:02:13;35.85;;;12.95;;
29382;SDS011;16365;51.598;7.668;2023-03-04T00:04:40;32.15;;;10.45;;
29382;SDS011;16365;51.598;7.668;2023-03-04T00:07:06;25.75;;;10.60;;
29382;SDS011;16365;51.598;7.668;2023-03-04T00:09:33;25.98;;;9.90;;
29382;SDS011;16365;51.598;7.668;2023-03-04T00:12:00;22.83;;;8.77;;
29382;SDS011;16365;51.598;7.668;2023-03-04T00:14:26;27.15;;;9.93;;
29382;SDS011;16365;51.598;7.668;2023-03-04T00:16:55;31.38;;;9.43;;
29382;SDS011;16365;51.598;7.668;2023-03-04T00:19:22;30.88;;;9.70;;
29382;SDS011;16365;51.598;7.668;2023-03-04T00:21:48;26.90;;;8.88;;
29382;SDS011;16365;51.598;7.668;2023-03-04T00:24:15;26.50;;;9.15;;
29382;SDS011;16365;51.598;7.668;2023-03-04T00:26:42;22.25;;;8.50;;
29382;SDS011;16365;51.598;7.668;2023-03-04T00:29:08;31.27;;;7.68;;
29382;SDS011;16365;51.598;7.668;2023-03-04T00:31:35;25.20;;;7.43;;
29382;SDS011;16365;51.598;7.668;2023-03-04T00:34:01;22.80;;;7.57;;
29382;SDS011;16365;51.598;7.668;2023-03-04T00:36:28;22.52;;;7.32;;
29382;SDS011;16365;51.598;7.668;2023-03-04T00:38:54;21.48;;;7.10;;
29382;SDS011;16365;51.598;7.668;2023-03-04T00:41:21;26.33;;;7.35;;
29382;SDS011;16365;51.598;7.668;2023-03-04T00:43:47;19.75;;;7.40;;
29382;SDS011;16365;51.598;7.668;2023-03-04T00:46:14;18.55;;;6.45;;
29382;SDS011;16365;51.598;7.668;2023-03-04T00:48:40;20.25;;;6.80;;
29382;SDS011;16365;51.598;7.668;2023-03-04T00:51:07;29.75;;;6.70;;
29382;SDS011;16365;51.598;7.668;2023-03-04T00:53:34;22.08;;;6.70;;
29382;SDS011;16365;51.598;7.668;2023-03-04T00:56:00;27.42;;;5.90;;
29382;SDS011;16365;51.598;7.668;2023-03-04T00:58:27;17.25;;;5.13;;
29382;SDS011;16365;51.598;7.668;2023-03-04T01:00:53;29.92;;;6.13;;
29382;SDS011;16365;51.598;7.668;2023-03-04T01:03:20;22.40;;;4.97;;
29382;SDS011;16365;51.598;7.668;2023-03-04T01:05:46;20.85;;;4.97;;
29382;SDS011;16365;51.598;7.668;2023-03-04T01:08:13;23.73;;;5.00;;
29382;SDS011;16365;51.598;7.668;2023-03-04T01:10:40;18.30;;;4.47;;
29382;SDS011;16365;51.598;7.668;2023-03-04T01:13:07;21.05;;;4.57;;
29382;SDS011;16365;51.598;7.668;2023-03-04T01:15:33;18.63;;;5.18;;
29382;SDS011;16365;51.598;7.668;2023-03-04T01:18:00;25.30;;;4.88;;
29382;SDS011;16365;51.598;7.668;2023-03-04T01:20:27;17.60;;;4.53;;
29382;SDS011;16365;51.598;7.668;2023-03-04T01:22:53;24.58;;;5.35;;
29382;SDS011;16365;51.598;7.668;2023-03-04T01:25:20;34.80;;;7.28;;
29382;SDS011;16365;51.598;7.668;2023-03-04T01:27:46;20.27;;;5.50;;
29382;SDS011;16365;51.598;7.668;2023-03-04T01:30:12;20.98;;;4.03;;
29382;SDS011;16365;51.598;7.668;2023-03-04T01:32:39;15.38;;;4.30;;
29382;SDS011;16365;51.598;7.668;2023-03-04T01:35:06;25.67;;;5.25;;
29382;SDS011;16365;51.598;7.668;2023-03-04T01:37:33;20.33;;;4.25;;
29382;SDS011;16365;51.598;7.668;2023-03-04T01:39:59;20.85;;;4.32;;
29382;SDS011;16365;51.598;7.668;2023-03-04T01:42:27;23.15;;;3.88;;
29382;SDS011;16365;51.598;7.668;2023-03-04T01:44:57;31.33;;;4.25;;
29382;SDS011;16365;51.598;7.668;2023-03-04T01:47:24;25.35;;;4.90;;
29382;SDS011;16365;51.598;7.668;2023-03-04T01:49:56;16.58;;;4.50;;
29382;SDS011;16365;51.598;7.668;2023-03-04T01:52:24;24.63;;;4.05;;
29382;SDS011;16365;51.598;7.668;2023-03-04T01:54:53;24.33;;;4.18;;
29382;SDS011;16365;51.598;7.668;2023-03-04T01:57:23;26.90;;;5.15;;
29382;SDS011;16365;51.598;7.668;2023-03-04T02:02:49;21.75;;;4.38;;
29382;SDS011;16365;51.598;7.668;2023-03-04T02:05:18;18.50;;;4.03;;
29382;SDS011;16365;51.598;7.668;2023-03-04T02:07:45;28.73;;;4.47;;
29382;SDS011;16365;51.598;7.668;2023-03-04T02:10:12;23.60;;;4.93;;
29382;SDS011;16365;51.598;7.668;2023-03-04T02:12:39;32.05;;;5.55;;
29382;SDS011;16365;51.598;7.668;2023-03-04T02:15:05;16.40;;;4.10;;
29382;SDS011;16365;51.598;7.668;2023-03-04T02:17:33;19.40;;;3.70;;
29382;SDS011;16365;51.598;7.668;2023-03-04T02:25:44;24.88;;;4.30;;
29382;SDS011;16365;51.598;7.668;2023-03-04T02:28:28;20.45;;;3.35;;
29382;SDS011;16365;51.598;7.668;2023-03-04T02:30:55;21.30;;;4.05;;
29382;SDS011;16365;51.598;7.668;2023-03-04T02:33:21;24.67;;;4.15;;
29382;SDS011;16365;51.598;7.668;2023-03-04T02:35:48;28.02;;;4.72;;
29382;SDS011;16365;51.598;7.668;2023-03-04T02:38:14;27.73;;;4.47;;
29382;SDS011;16365;51.598;7.668;2023-03-04T02:40:41;28.95;;;4.00;;
29382;SDS011;16365;51.598;7.668;2023-03-04T02:43:11;25.40;;;4.15;;
29382;SDS011;16365;51.598;7.668;2023-03-04T02:45:45;16.98;;;3.75;;
29382;SDS011;16365;51.598;7.668;2023-03-04T02:48:16;30.25;;;4.55;;
29382;SDS011;16365;51.598;7.668;2023-03-04T02:50:49;26.02;;;3.90;;
29382;SDS011;16365;51.598;7.668;2023-03-04T02:53:17;23.65;;;4.35;;
29382;SDS011;16365;51.598;7.668;2023-03-04T02:55:46;24.40;;;4.63;;
29382;SDS011;16365;51.598;7.668;2023-03-04T02:58:13;25.17;;;4.28;;
29382;SDS011;16365;51.598;7.668;2023-03-04T03:00:41;18.73;;;3.58;;
29382;SDS011;16365;51.598;7.668;2023-03-04T03:03:08;19.83;;;3.78;;
29382;SDS011;16365;51.598;7.668;2023-03-04T03:05:35;21.45;;;3.15;;
29382;SDS011;16365;51.598;7.668;2023-03-04T03:08:02;18.10;;;4.60;;
29382;SDS011;16365;51.598;7.668;2023-03-04T03:10:29;31.08;;;4.95;;
29382;SDS011;16365;51.598;7.668;2023-03-04T03:12:55;23.50;;;3.85;;
29382;SDS011;16365;51.598;7.668;2023-03-04T03:15:22;22.15;;;4.57;;
29382;SDS011;16365;51.598;7.668;2023-03-04T03:17:49;19.35;;;3.90;;
29382;SDS011;16365;51.598;7.668;2023-03-04T03:20:16;22.33;;;3.47;;
29382;SDS011;16365;51.598;7.668;2023-03-04T03:22:42;24.52;;;3.50;;
29382;SDS011;16365;51.598;7.668;2023-03-04T03:25:10;21.67;;;3.83;;
29382;SDS011;16365;51.598;7.668;2023-03-04T03:27:38;19.60;;;3.97;;
29382;SDS011;16365;51.598;7.668;2023-03-04T03:30:05;29.17;;;4.35;;
29382;SDS011;16365;51.598;7.668;2023-03-04T03:32:32;17.30;;;3.38;;
29382;SDS011;16365;51.598;7.668;2023-03-04T03:34:59;26.20;;;4.47;;
29382;SDS011;16365;51.598;7.668;2023-03-04T03:37:26;18.48;;;3.92;;
29382;SDS011;16365;51.598;7.668;2023-03-04T03:39:52;21.25;;;3.50;;
29382;SDS011;16365;51.598;7.668;2023-03-04T03:42:19;25.35;;;3.95;;
29382;SDS011;16365;51.598;7.668;2023-03-04T03:44:45;18.38;;;3.05;;
29382;SDS011;16365;51.598;7.668;2023-03-04T03:47:12;20.25;;;3.63;;
29382;SDS011;16365;51.598;7.668;2023-03-04T03:49:38;21.27;;;4.50;;
29382;SDS011;16365;51.598;7.668;2023-03-04T03:52:05;24.08;;;3.63;;
29382;SDS011;16365;51.598;7.668;2023-03-04T03:54:33;21.25;;;3.33;;
29382;SDS011;16365;51.598;7.668;2023-03-04T03:56:59;26.80;;;4.65;;
29382;SDS011;16365;51.598;7.668;2023-03-04T03:59:26;23.52;;;3.63;;
29382;SDS011;16365;51.598;7.668;2023-03-04T04:01:52;20.20;;;3.70;;
29382;SDS011;16365;51.598;7.668;2023-03-04T04:04:19;28.65;;;4.18;;
29382;SDS011;16365;51.598;7.668;2023-03-04T04:06:46;19.98;;;3.63;;
29382;SDS011;16365;51.598;7.668;2023-03-04T04:09:12;18.25;;;3.67;;
29382;SDS011;16365;51.598;7.668;2023-03-04T04:11:39;16.48;;;2.80;;
29382;SDS011;16365;51.598;7.668;2023-03-04T04:14:05;21.05;;;4.05;;
29382;SDS011;16365;51.598;7.668;2023-03-04T04:16:32;12.82;;;3.42;;
29382;SDS011;16365;51.598;7.668;2023-03-04T04:18:58;15.80;;;3.40;;
29382;SDS011;16365;51.598;7.668;2023-03-04T04:21:24;21.08;;;3.38;;
29382;SDS011;16365;51.598;7.668;2023-03-04T04:23:51;24.70;;;3.85;;
29382;SDS011;16365;51.598;7.668;2023-03-04T04:26:17;18.20;;;4.07;;
29382;SDS011;16365;51.598;7.668;2023-03-04T04:28:44;25.17;;;3.75;;
29382;SDS011;16365;51.598;7.668;2023-03-04T04:31:10;18.52;;;3.35;;
29382;SDS011;16365;51.598;7.668;2023-03-04T04:33:37;19.42;;;3.72;;
29382;SDS011;16365;51.598;7.668;2023-03-04T04:36:04;16.90;;;3.20;;
29382;SDS011;16365;51.598;7.668;2023-03-04T04:38:30;29.25;;;4.30;;
29382;SDS011;16365;51.598;7.668;2023-03-04T04:40:57;21.77;;;3.13;;
29382;SDS011;16365;51.598;7.668;2023-03-04T04:43:25;11.00;;;3.13;;
29382;SDS011;16365;51.598;7.668;2023-03-04T04:45:51;16.33;;;3.47;;
29382;SDS011;16365;51.598;7.668;2023-03-04T04:48:18;20.55;;;3.92;;
29382;SDS011;16365;51.598;7.668;2023-03-04T04:50:44;22.45;;;3.33;;
29382;SDS011;16365;51.598;7.668;2023-03-04T04:53:11;18.90;;;3.58;;
29382;SDS011;16365;51.598;7.668;2023-03-04T04:55:39;12.18;;;2.70;;
29382;SDS011;16365;51.598;7.668;2023-03-04T04:58:06;18.30;;;3.78;;
29382;SDS011;16365;51.598;7.668;2023-03-04T05:00:33;15.57;;;3.13;;
29382;SDS011;16365;51.598;7.668;2023-03-04T05:02:59;17.13;;;4.00;;
29382;SDS011;16365;51.598;7.668;2023-03-04T05:05:25;18.48;;;3.00;;
29382;SDS011;16365;51.598;7.668;2023-03-04T05:07:52;14.05;;;3.10;;
29382;SDS011;16365;51.598;7.668;2023-03-04T05:10:18;18.88;;;2.80;;
29382;SDS011;16365;51.598;7.668;2023-03-04T05:12:45;12.90;;;2.70;;
29382;SDS011;16365;51.598;7.668;2023-03-04T05:15:11;15.32;;;2.38;;
29382;SDS011;16365;51.598;7.668;2023-03-04T05:17:38;14.68;;;3.10;;
29382;SDS011;16365;51.598;7.668;2023-03-04T05:20:04;16.08;;;2.65;;
29382;SDS011;16365;51.598;7.668;2023-03-04T05:22:32;19.87;;;3.10;;
29382;SDS011;16365;51.598;7.668;2023-03-04T05:24:59;26.05;;;3.10;;
29382;SDS011;16365;51.598;7.668;2023-03-04T05:27:25;17.65;;;2.60;;
29382;SDS011;16365;51.598;7.668;2023-03-04T05:29:51;13.45;;;2.95;;
29382;SDS011;16365;51.598;7.668;2023-03-04T05:32:19;15.77;;;2.65;;
29382;SDS011;16365;51.598;7.668;2023-03-04T05:34:46;16.30;;;3.13;;
29382;SDS011;16365;51.598;7.668;2023-03-04T05:37:12;20.05;;;3.30;;
29382;SDS011;16365;51.598;7.668;2023-03-04T05:39:38;11.85;;;2.88;;
29382;SDS011;16365;51.598;7.668;2023-03-04T05:42:05;16.05;;;2.78;;
29382;SDS011;16365;51.598;7.668;2023-03-04T05:44:31;15.05;;;3.17;;
29382;SDS011;16365;51.598;7.668;2023-03-04T05:46:58;13.02;;;2.33;;
29382;SDS011;16365;51.598;7.668;2023-03-04T05:49:24;13.35;;;2.72;;
29382;SDS011;16365;51.598;7.668;2023-03-04T05:51:51;14.32;;;2.80;;
29382;SDS011;16365;51.598;7.668;2023-03-04T05:54:17;15.88;;;3.10;;
29382;SDS011;16365;51.598;7.668;2023-03-04T05:56:44;18.02;;;3.42;;
29382;SDS011;16365;51.598;7.668;2023-03-04T05:59:10;9.95;;;2.65;;
29382;SDS011;16365;51.598;7.668;2023-03-04T06:01:37;16.50;;;3.20;;
29382;SDS011;16365;51.598;7.668;2023-03-04T06:04:03;16.65;;;2.53;;
29382;SDS011;16365;51.598;7.668;2023-03-04T06:06:30;21.17;;;3.30;;
29382;SDS011;16365;51.598;7.668;2023-03-04T06:08:56;11.30;;;2.60;;
29382;SDS011;16365;51.598;7.668;2023-03-04T06:11:24;15.37;;;3.50;;
29382;SDS011;16365;51.598;7.668;2023-03-04T06:13:50;22.83;;;3.50;;
29382;SDS011;16365;51.598;7.668;2023-03-04T06:16:17;14.20;;;3.72;;
29382;SDS011;16365;51.598;7.668;2023-03-04T06:18:44;12.98;;;2.70;;
29382;SDS011;16365;51.598;7.668;2023-03-04T06:21:10;20.45;;;3.55;;
29382;SDS011;16365;51.598;7.668;2023-03-04T06:23:36;16.95;;;3.17;;
29382;SDS011;16365;51.598;7.668;2023-03-04T06:26:03;18.27;;;3.35;;
29382;SDS011;16365;51.598;7.668;2023-03-04T06:28:34;19.35;;;3.33;;
29382;SDS011;16365;51.598;7.668;2023-03-04T06:31:00;17.88;;;2.95;;
29382;SDS011;16365;51.598;7.668;2023-03-04T06:33:27;12.18;;;3.30;;
29382;SDS011;16365;51.598;7.668;2023-03-04T06:35:54;11.70;;;2.53;;
29382;SDS011;16365;51.598;7.668;2023-03-04T06:38:22;18.00;;;3.60;;
29382;SDS011;16365;51.598;7.668;2023-03-04T06:40:49;16.90;;;2.80;;
29382;SDS011;16365;51.598;7.668;2023-03-04T06:43:15;14.45;;;3.20;;
29382;SDS011;16365;51.598;7.668;2023-03-04T06:45:42;22.95;;;4.35;;
29382;SDS011;16365;51.598;7.668;2023-03-04T06:48:08;14.52;;;2.72;;
29382;SDS011;16365;51.598;7.668;2023-03-04T06:50:34;18.88;;;2.85;;
29382;SDS011;16365;51.598;7.668;2023-03-04T06:53:01;14.45;;;3.00;;
29382;SDS011;16365;51.598;7.668;2023-03-04T06:55:27;17.42;;;2.88;;
29382;SDS011;16365;51.598;7.668;2023-03-04T06:57:54;7.95;;;2.35;;
29382;SDS011;16365;51.598;7.668;2023-03-04T07:00:20;16.55;;;2.80;;
29382;SDS011;16365;51.598;7.668;2023-03-04T07:05:15;14.65;;;2.47;;
29382;SDS011;16365;51.598;7.668;2023-03-04T07:07:42;13.27;;;2.65;;
29382;SDS011;16365;51.598;7.668;2023-03-04T07:10:08;17.80;;;2.80;;
29382;SDS011;16365;51.598;7.668;2023-03-04T07:12:35;12.80;;;2.80;;
29382;SDS011;16365;51.598;7.668;2023-03-04T07:15:01;15.23;;;3.78;;
29382;SDS011;16365;51.598;7.668;2023-03-04T07:17:28;16.48;;;2.70;;
29382;SDS011;16365;51.598;7.668;2023-03-04T07:19:54;13.48;;;2.88;;
29382;SDS011;16365;51.598;7.668;2023-03-04T07:22:21;14.13;;;2.95;;
29382;SDS011;16365;51.598;7.668;2023-03-04T07:24:48;14.23;;;2.80;;
29382;SDS011;16365;51.598;7.668;2023-03-04T07:27:14;18.85;;;3.00;;
29382;SDS011;16365;51.598;7.668;2023-03-04T07:29:40;16.23;;;2.92;;
29382;SDS011;16365;51.598;7.668;2023-03-04T07:32:08;15.05;;;2.88;;
29382;SDS011;16365;51.598;7.668;2023-03-04T07:34:35;7.47;;;2.17;;
29382;SDS011;16365;51.598;7.668;2023-03-04T07:37:02;16.75;;;3.00;;
29382;SDS011;16365;51.598;7.668;2023-03-04T07:39:29;17.97;;;3.30;;
29382;SDS011;16365;51.598;7.668;2023-03-04T07:41:56;8.65;;;2.05;;
29382;SDS011;16365;51.598;7.668;2023-03-04T07:44:22;15.18;;;2.30;;
29382;SDS011;16365;51.598;7.668;2023-03-04T07:46:49;13.02;;;2.67;;
29382;SDS011;16365;51.598;7.668;2023-03-04T07:49:15;13.18;;;2.50;;
29382;SDS011;16365;51.598;7.668;2023-03-04T07:51:41;11.02;;;2.80;;
29382;SDS011;16365;51.598;7.668;2023-03-04T07:54:08;11.95;;;2.67;;
29382;SDS011;16365;51.598;7.668;2023-03-04T07:56:35;15.50;;;2.92;;
29382;SDS011;16365;51.598;7.668;2023-03-04T07:59:01;22.25;;;2.80;;
29382;SDS011;16365;51.598;7.668;2023-03-04T08:01:30;15.32;;;2.83;;
29382;SDS011;16365;51.598;7.668;2023-03-04T08:03:59;13.05;;;2.63;;
29382;SDS011;16365;51.598;7.668;2023-03-04T08:06:26;13.07;;;2.65;;
29382;SDS011;16365;51.598;7.668;2023-03-04T08:08:57;10.48;;;2.70;;
29382;SDS011;16365;51.598;7.668;2023-03-04T08:11:28;15.90;;;2.80;;
29382;SDS011;16365;51.598;7.668;2023-03-04T08:13:55;15.13;;;2.75;;
29382;SDS011;16365;51.598;7.668;2023-03-04T08:16:22;15.23;;;2.47;;
29382;SDS011;16365;51.598;7.668;2023-03-04T08:18:57;14.83;;;3.83;;
29382;SDS011;16365;51.598;7.668;2023-03-04T08:21:26;10.05;;;2.20;;
29382;SDS011;16365;51.598;7.668;2023-03-04T08:23:53;14.48;;;3.30;;
29382;SDS011;16365;51.598;7.668;2023-03-04T08:26:22;13.40;;;2.40;;
29382;SDS011;16365;51.598;7.668;2023-03-04T08:28:50;11.98;;;2.58;;
29382;SDS011;16365;51.598;7.668;2023-03-04T08:31:17;6.13;;;2.10;;
29382;SDS011;16365;51.598;7.668;2023-03-04T08:33:44;12.35;;;2.50;;
29382;SDS011;16365;51.598;7.668;2023-03-04T08:36:12;16.42;;;2.85;;
29382;SDS011;16365;51.598;7.668;2023-03-04T08:38:40;12.35;;;2.40;;
29382;SDS011;16365;51.598;7.668;2023-03-04T08:41:07;13.75;;;2.60;;
29382;SDS011;16365;51.598;7.668;2023-03-04T08:43:33;15.93;;;2.30;;
29382;SDS011;16365;51.598;7.668;2023-03-04T08:46:00;12.57;;;2.60;;
29382;SDS011;16365;51.598;7.668;2023-03-04T08:48:27;13.20;;;3.25;;
29382;SDS011;16365;51.598;7.668;2023-03-04T08:50:54;12.18;;;3.22;;
29382;SDS011;16365;51.598;7.668;2023-03-04T08:53:20;10.93;;;2.70;;
29382;SDS011;16365;51.598;7.668;2023-03-04T08:55:47;11.43;;;2.90;;
29382;SDS011;16365;51.598;7.668;2023-03-04T09:00:43;9.30;;;2.00;;
29382;SDS011;16365;51.598;7.668;2023-03-04T09:03:13;11.45;;;2.60;;
29382;SDS011;16365;51.598;7.668;2023-03-04T09:05:40;6.70;;;2.10;;
29382;SDS011;16365;51.598;7.668;2023-03-04T09:08:07;9.32;;;2.60;;
29382;SDS011;16365;51.598;7.668;2023-03-04T09:10:34;12.90;;;2.30;;
29382;SDS011;16365;51.598;7.668;2023-03-04T09:13:00;9.05;;;2.60;;
29382;SDS011;16365;51.598;7.668;2023-03-04T09:15:27;15.50;;;2.67;;
29382;SDS011;16365;51.598;7.668;2023-03-04T09:17:54;9.40;;;2.22;;
29382;SDS011;16365;51.598;7.668;2023-03-04T09:20:20;15.27;;;2.28;;
29382;SDS011;16365;51.598;7.668;2023-03-04T09:22:48;15.13;;;3.00;;
29382;SDS011;16365;51.598;7.668;2023-03-04T09:25:15;11.82;;;2.63;;
29382;SDS011;16365;51.598;7.668;2023-03-04T09:27:41;12.02;;;2.53;;
29382;SDS011;16365;51.598;7.668;2023-03-04T09:30:08;14.77;;;3.15;;
29382;SDS011;16365;51.598;7.668;2023-03-04T09:32:35;13.07;;;2.60;;
29382;SDS011;16365;51.598;7.668;2023-03-04T09:35:02;7.88;;;2.33;;
29382;SDS011;16365;51.598;7.668;2023-03-04T09:37:29;11.82;;;2.75;;
29382;SDS011;16365;51.598;7.668;2023-03-04T09:39:55;8.52;;;2.38;;
29382;SDS011;16365;51.598;7.668;2023-03-04T09:42:42;11.88;;;2.33;;
29382;SDS011;16365;51.598;7.668;2023-03-04T09:45:15;9.20;;;2.47;;
29382;SDS011;16365;51.598;7.668;2023-03-04T09:47:45;13.10;;;2.72;;
29382;SDS011;16365;51.598;7.668;2023-03-04T09:50:14;11.63;;;2.60;;
29382;SDS011;16365;51.598;7.668;2023-03-04T09:55:25;11.18;;;2.55;;
29382;SDS011;16365;51.598;7.668;2023-03-04T09:58:09;10.10;;;3.00;;
29382;SDS011;16365;51.598;7.668;2023-03-04T10:00:57;11.65;;;3.00;;
29382;SDS011;16365;51.598;7.668;2023-03-04T10:03:41;15.32;;;3.47;;
29382;SDS011;16365;51.598;7.668;2023-03-04T10:06:15;12.13;;;3.40;;
29382;SDS011;16365;51.598;7.668;2023-03-04T10:08:56;9.73;;;2.67;;
29382;SDS011;16365;51.598;7.668;2023-03-04T10:11:44;11.90;;;3.47;;
29382;SDS011;16365;51.598;7.668;2023-03-04T10:16:51;11.75;;;2.97;;
29382;SDS011;16365;51.598;7.668;2023-03-04T10:19:27;12.30;;;2.50;;
29382;SDS011;16365;51.598;7.668;2023-03-04T10:22:01;10.15;;;2.75;;
29382;SDS011;16365;51.598;7.668;2023-03-04T10:24:46;14.80;;;6.50;;
29382;SDS011;16365;51.598;7.668;2023-03-04T10:27:14;32.13;;;14.52;;
29382;SDS011;16365;51.598;7.668;2023-03-04T10:29:44;22.52;;;10.00;;
29382;SDS011;16365;51.598;7.668;2023-03-04T10:32:15;26.20;;;12.38;;
29382;SDS011;16365;51.598;7.668;2023-03-04T10:34:45;27.75;;;13.90;;
29382;SDS011;16365;51.598;7.668;2023-03-04T10:37:12;17.95;;;6.68;;
29382;SDS011;16365;51.598;7.668;2023-03-04T10:39:40;21.58;;;11.52;;
29382;SDS011;16365;51.598;7.668;2023-03-04T10:44:41;22.55;;;10.23;;
29382;SDS011;16365;51.598;7.668;2023-03-04T10:47:17;27.85;;;11.68;;
29382;SDS011;16365;51.598;7.668;2023-03-04T10:49:54;20.00;;;6.35;;
29382;SDS011;16365;51.598;7.668;2023-03-04T10:54:55;13.93;;;8.00;;
29382;SDS011;16365;51.598;7.668;2023-03-04T10:57:28;18.77;;;8.90;;
29382;SDS011;16365;51.598;7.668;2023-03-04T11:00:02;13.02;;;5.30;;
29382;SDS011;16365;51.598;7.668;2023-03-04T11:02:35;11.45;;;4.57;;
29382;SDS011;16365;51.598;7.668;2023-03-04T11:05:06;10.38;;;4.88;;
29382;SDS011;16365;51.598;7.668;2023-03-04T11:10:29;20.48;;;8.88;;
29382;SDS011;16365;51.598;7.668;2023-03-04T11:15:56;14.18;;;6.13;;
29382;SDS011;16365;51.598;7.668;2023-03-04T11:21:02;12.43;;;6.20;;
29382;SDS011;16365;51.598;7.668;2023-03-04T11:26:15;13.40;;;7.40;;
29382;SDS011;16365;51.598;7.668;2023-03-04T11:28:54;15.82;;;8.45;;
29382;SDS011;16365;51.598;7.668;2023-03-04T11:31:35;11.30;;;4.28;;
29382;SDS011;16365;51.598;7.668;2023-03-04T11:39:37;8.82;;;3.90;;
29382;SDS011;16365;51.598;7.668;2023-03-04T11:42:27;5.95;;;3.00;;
29382;SDS011;16365;51.598;7.668;2023-03-04T11:45:01;12.43;;;3.38;;
29382;SDS011;16365;51.598;7.668;2023-03-04T11:50:19;11.18;;;4.88;;
29382;SDS011;16365;51.598;7.668;2023-03-04T11:55:40;9.32;;;4.53;;
29382;SDS011;16365;51.598;7.668;2023-03-04T11:58:34;9.00;;;3.40;;
29382;SDS011;16365;51.598;7.668;2023-03-04T12:04:03;6.65;;;3.30;;
29382;SDS011;16365;51.598;7.668;2023-03-04T12:06:49;14.50;;;4.28;;
29382;SDS011;16365;51.598;7.668;2023-03-04T12:15:43;18.40;;;6.80;;
29382;SDS011;16365;51.598;7.668;2023-03-04T12:26:39;7.70;;;3.20;;
29382;SDS011;16365;51.598;7.668;2023-03-04T12:31:42;9.43;;;3.33;;
29382;SDS011;16365;51.598;7.668;2023-03-04T12:34:26;10.35;;;3.67;;
29382;SDS011;16365;51.598;7.668;2023-03-04T12:42:56;6.03;;;3.85;;
29382;SDS011;16365;51.598;7.668;2023-03-04T12:45:31;9.40;;;4.93;;
29382;SDS011;16365;51.598;7.668;2023-03-04T12:51:13;59.40;;;28.67;;
29382;SDS011;16365;51.598;7.668;2023-03-04T12:54:01;43.67;;;21.00;;
29382;SDS011;16365;51.598;7.668;2023-03-04T12:56:59;13.50;;;6.80;;
29382;SDS011;16365;51.598;7.668;2023-03-04T12:59:45;6.75;;;4.03;;
29382;SDS011;16365;51.598;7.668;2023-03-04T13:05:16;9.30;;;3.10;;
29382;SDS011;16365;51.598;7.668;2023-03-04T13:11:07;6.55;;;3.40;;
29382;SDS011;16365;51.598;7.668;2023-03-04T13:16:51;4.00;;;2.25;;
29382;SDS011;16365;51.598;7.668;2023-03-04T13:24:52;4.38;;;1.80;;
29382;SDS011;16365;51.598;7.668;2023-03-04T13:38:22;6.43;;;3.85;;
29382;SDS011;16365;51.598;7.668;2023-03-04T13:56:34;6.43;;;2.38;;
29382;SDS011;16365;51.598;7.668;2023-03-04T14:06:44;16.55;;;2.50;;
29382;SDS011;16365;51.598;7.668;2023-03-04T14:09:12;16.75;;;5.85;;
29382;SDS011;16365;51.598;7.668;2023-03-04T14:11:50;8.10;;;2.97;;
29382;SDS011;16365;51.598;7.668;2023-03-04T14:14:20;6.68;;;1.88;;
29382;SDS011;16365;51.598;7.668;2023-03-04T14:16:53;8.63;;;2.42;;
29382;SDS011;16365;51.598;7.668;2023-03-04T14:19:27;7.00;;;2.30;;
29382;SDS011;16365;51.598;7.668;2023-03-04T14:21:59;7.43;;;2.10;;
29382;SDS011;16365;51.598;7.668;2023-03-04T14:24:26;7.28;;;1.92;;
29382;SDS011;16365;51.598;7.668;2023-03-04T14:27:03;7.20;;;1.90;;
29382;SDS011;16365;51.598;7.668;2023-03-04T14:29:36;11.77;;;2.40;;
29382;SDS011;16365;51.598;7.668;2023-03-04T14:32:03;6.53;;;2.13;;
29382;SDS011;16365;51.598;7.668;2023-03-04T14:34:32;8.18;;;1.92;;
29382;SDS011;16365;51.598;7.668;2023-03-04T14:37:02;6.78;;;1.63;;
29382;SDS011;16365;51.598;7.668;2023-03-04T14:39:44;7.63;;;2.05;;
29382;SDS011;16365;51.598;7.668;2023-03-04T14:42:13;8.93;;;1.80;;
29382;SDS011;16365;51.598;7.668;2023-03-04T14:44:41;6.78;;;1.85;;
29382;SDS011;16365;51.598;7.668;2023-03-04T14:50:05;7.55;;;1.80;;
29382;SDS011;16365;51.598;7.668;2023-03-04T14:52:38;12.93;;;3.08;;
29382;SDS011;16365;51.598;7.668;2023-03-04T14:57:39;16.90;;;4.05;;
29382;SDS011;16365;51.598;7.668;2023-03-04T15:05:19;18.00;;;3.72;;
29382;SDS011;16365;51.598;7.668;2023-03-04T15:07:59;17.98;;;6.43;;
29382;SDS011;16365;51.598;7.668;2023-03-04T15:10:29;14.63;;;4.90;;
29382;SDS011;16365;51.598;7.668;2023-03-04T15:12:58;20.05;;;6.32;;
29382;SDS011;16365;51.598;7.668;2023-03-04T15:17:59;18.25;;;4.75;;
29382;SDS011;16365;51.598;7.668;2023-03-04T15:20:29;18.33;;;6.28;;
29382;SDS011;16365;51.598;7.668;2023-03-04T15:23:00;18.42;;;5.43;;
29382;SDS011;16365;51.598;7.668;2023-03-04T15:25:28;12.73;;;3.58;;
29382;SDS011;16365;51.598;7.668;2023-03-04T15:27:56;9.20;;;2.65;;
29382;SDS011;16365;51.598;7.668;2023-03-04T15:30:30;10.90;;;2.53;;
29382;SDS011;16365;51.598;7.668;2023-03-04T15:32:59;41.13;;;17.45;;
29382;SDS011;16365;51.598;7.668;2023-03-04T15:35:27;16.98;;;6.30;;
29382;SDS011;16365;51.598;7.668;2023-03-04T15:37:57;13.82;;;4.68;;
29382;SDS011;16365;51.598;7.668;2023-03-04T15:42:56;16.23;;;3.38;;
29382;SDS011;16365;51.598;7.668;2023-03-04T15:47:52;9.13;;;3.15;;
29382;SDS011;16365;51.598;7.668;2023-03-04T15:50:19;17.48;;;3.85;;
29382;SDS011;16365;51.598;7.668;2023-03-04T15:52:46;15.20;;;3.97;;
29382;SDS011;16365;51.598;7.668;2023-03-04T15:55:16;11.27;;;2.97;;
29382;SDS011;16365;51.598;7.668;2023-03-04T16:00:12;9.30;;;2.80;;
29382;SDS011;16365;51.598;7.668;2023-03-04T16:02:39;8.30;;;2.55;;
29382;SDS011;16365;51.598;7.668;2023-03-04T16:05:05;11.85;;;3.60;;
29382;SDS011;16365;51.598;7.668;2023-03-04T16:07:33;10.02;;;3.78;;
29382;SDS011;16365;51.598;7.668;2023-03-04T16:10:03;16.85;;;3.38;;
29382;SDS011;16365;51.598;7.668;2023-03-04T16:12:32;12.00;;;3.40;;
29382;SDS011;16365;51.598;7.668;2023-03-04T16:14:59;20.70;;;3.17;;
29382;SDS011;16365;51.598;7.668;2023-03-04T16:17:25;14.18;;;2.72;;
29382;SDS011;16365;51.598;7.668;2023-03-04T16:19:52;18.30;;;3.85;;
29382;SDS011;16365;51.598;7.668;2023-03-04T16:22:19;8.52;;;2.15;;
29382;SDS011;16365;51.598;7.668;2023-03-04T16:24:50;17.08;;;3.35;;
29382;SDS011;16365;51.598;7.668;2023-03-04T16:27:17;8.82;;;2.78;;
29382;SDS011;16365;51.598;7.668;2023-03-04T16:29:45;8.40;;;2.60;;
29382;SDS011;16365;51.598;7.668;2023-03-04T16:32:11;15.70;;;2.60;;
29382;SDS011;16365;51.598;7.668;2023-03-04T16:34:37;13.90;;;2.97;;
29382;SDS011;16365;51.598;7.668;2023-03-04T16:37:05;18.00;;;2.97;;
29382;SDS011;16365;51.598;7.668;2023-03-04T16:39:37;13.23;;;2.75;;
29382;SDS011;16365;51.598;7.668;2023-03-04T16:42:04;15.27;;;3.00;;
29382;SDS011;16365;51.598;7.668;2023-03-04T16:44:38;13.27;;;2.15;;
29382;SDS011;16365;51.598;7.668;2023-03-04T16:47:05;16.70;;;3.10;;
29382;SDS011;16365;51.598;7.668;2023-03-04T16:49:32;9.65;;;3.70;;
29382;SDS011;16365;51.598;7.668;2023-03-04T16:51:59;10.52;;;2.42;;
29382;SDS011;16365;51.598;7.668;2023-03-04T16:54:26;11.55;;;3.05;;
29382;SDS011;16365;51.598;7.668;2023-03-04T16:56:55;17.35;;;4.20;;
29382;SDS011;16365;51.598;7.668;2023-03-04T16:59:23;12.40;;;3.50;;
29382;SDS011;16365;51.598;7.668;2023-03-04T17:01:51;16.10;;;3.78;;
29382;SDS011;16365;51.598;7.668;2023-03-04T17:04:18;12.00;;;2.88;;
29382;SDS011;16365;51.598;7.668;2023-03-04T17:06:45;10.57;;;3.53;;
29382;SDS011;16365;51.598;7.668;2023-03-04T17:09:11;13.52;;;3.88;;
29382;SDS011;16365;51.598;7.668;2023-03-04T17:11:38;10.30;;;3.05;;